Latest Weather Observations for Cerberus

IDV60901

Issued at 10:55 am EDT Wednesday 22 October 2014 (issued every 10 minutes, with the page automatically refreshed every 10 minutes)

About weather observations | Map of Melbourne area stations | Latest observations for Melbourne area | Other Formats
Station Details ID: 086361 Name: CERBERUS Lat: -38.36 Lon: 145.18 Height: 12.69 m
Data from the previous 72 hours. | See also: Recent months at Cerberus
Date/Time
EDT
Tmp

°C
App
Tmp
°C
Dew
Point
°C
Rel
Hum
%
Delta-T

°C
Wind Press
QNH
hPa
Press
MSL
hPa
Rain
since
9 am
mm
Dir
 
Spd
km/h
Gust
km/h
Spd
kts
Gust
kts
22/10:30am 22.6 22.7 13.9 58 5.1 NE 6 11 3 6 1019.0 1019.0 0.0
22/10:00am 21.1 20.9 13.0 60 4.6 NE 6 11 3 6 1019.2 1019.2 0.0
22/09:30am 20.1 19.8 13.3 65 3.9 ENE 7 9 4 5 1019.3 1019.3 0.0
22/09:00am 19.0 18.7 13.2 69 3.3 NE 7 13 4 7 1019.2 1019.2 0.0
22/08:30am 16.8 16.4 13.1 79 2.1 N 7 13 4 7 1019.1 1019.1 0.0
22/08:00am 14.6 14.1 12.1 85 1.4 NNE 6 9 3 5 1019.4 1019.4 0.0
22/07:30am 13.2 13.2 11.3 88 1.0 NNE 2 6 1 3 1019.4 1019.4 0.0
22/07:00am 11.8 11.1 10.0 89 0.9 NNE 4 6 2 3 1019.5 1019.5 0.0
22/06:30am 11.3 10.1 9.4 88 1.0 N 6 9 3 5 1019.6 1019.6 0.0
22/06:00am 10.9 9.9 8.8 87 1.0 NNE 4 7 2 4 1019.6 1019.6 0.0
22/05:30am 11.6 11.5 9.3 86 1.2 CALM 0 4 0 2 1019.6 1019.6 0.0
22/05:00am 12.4 12.1 10.0 85 1.2 NNE 2 6 1 3 1019.5 1019.5 0.0
22/04:30am 12.9 11.9 10.4 85 1.3 N 6 11 3 6 1019.5 1019.5 0.0
22/04:00am 13.2 12.3 10.7 85 1.3 NNE 6 11 3 6 1019.8 1019.8 0.0
22/03:30am 13.4 12.9 10.9 85 1.3 NNE 4 7 2 4 1020.2 1020.2 0.0
22/03:00am 13.7 12.9 11.0 84 1.4 NNE 6 9 3 5 1020.4 1020.4 0.0
22/02:30am 13.7 12.9 11.0 84 1.4 NE 6 11 3 6 1020.7 1020.7 0.0
22/02:00am 13.8 12.9 10.8 82 1.6 NNE 6 9 3 5 1021.1 1021.1 0.0
22/01:30am 14.1 13.3 10.9 81 1.7 NE 6 9 3 5 1021.5 1021.5 0.0
22/01:00am 14.4 13.4 11.0 80 1.8 NE 7 13 4 7 1022.0 1022.0 0.0
22/12:30am 14.7 13.7 10.9 78 2.0 NE 7 13 4 7 1022.4 1022.4 0.0
22/12:00am 14.7 13.7 10.3 75 2.3 NE 6 9 3 5 1022.8 1022.8 0.0
 
Date/Time
EDT
Tmp

°C
App
Tmp
°C
Dew
Point
°C
Rel
Hum
%
Delta-T

°C
Wind Press
QNH
hPa
Press
MSL
hPa
Rain
since
9 am
mm
Dir
 
Spd
km/h
Gust
km/h
Spd
kts
Gust
kts
21/11:30pm 15.0 14.0 10.2 73 2.5 NE 6 11 3 6 1023.0 1023.0 0.0
21/11:00pm 15.4 13.9 10.4 72 2.6 ENE 9 15 5 8 1023.4 1023.4 0.0
21/10:30pm 15.6 14.6 10.4 71 2.7 NE 6 9 3 5 1023.5 1023.5 0.0
21/10:00pm 16.1 15.0 10.6 70 2.9 NE 7 11 4 6 1023.8 1023.8 0.0
21/09:30pm 16.6 15.8 10.9 69 3.0 NE 6 13 3 7 1023.8 1023.8 0.0
21/09:00pm 17.3 16.0 11.3 68 3.2 NE 9 17 5 9 1023.5 1023.5 0.0
21/08:30pm 17.5 16.9 12.2 71 2.9 ENE 7 13 4 7 1023.4 1023.4 0.0
21/08:00pm 18.3 17.8 12.5 69 3.2 ENE 7 13 4 7 1023.3 1023.3 0.0
21/07:30pm 18.9 18.7 13.1 69 3.3 E 6 11 3 6 1023.2 1023.2 0.0
21/07:00pm 19.5 18.9 13.4 68 3.5 ESE 9 15 5 8 1023.1 1023.1 0.0
21/06:30pm 20.2 19.0 13.9 67 3.6 ESE 13 22 7 12 1023.0 1023.0 0.0
21/06:00pm 20.9 19.4 14.1 65 3.9 ESE 15 28 8 15 1023.1 1023.1 0.0
21/05:30pm 21.7 20.1 13.9 61 4.5 ESE 15 24 8 13 1023.2 1023.2 0.0
21/05:00pm 22.9 21.7 12.8 53 5.8 ESE 11 19 6 10 1023.1 1023.1 0.0
21/04:30pm 23.2 21.5 11.3 47 6.7 ESE 11 19 6 10 1023.3 1023.3 0.0
21/04:00pm 23.1 21.6 11.8 49 6.3 ESE 11 17 6 9 1023.8 1023.8 0.0
21/03:30pm 22.9 21.4 11.9 50 6.2 ESE 11 15 6 8 1024.1 1024.1 0.0
21/03:00pm 22.5 21.0 11.9 51 5.9 SE 11 17 6 9 1024.6 1024.6 0.0
21/02:30pm 21.6 20.2 11.0 51 5.8 SE 9 15 5 8 1025.0 1025.0 0.0
21/02:00pm 21.3 19.5 10.8 51 5.7 ESE 11 19 6 10 1025.6 1025.6 0.0
21/01:30pm 21.4 20.1 11.4 53 5.5 NNE 9 17 5 9 1026.0 1026.0 0.0
21/01:00pm 20.3 18.4 10.4 53 5.3 NNE 11 22 6 12 1026.5 1026.5 0.0
21/12:30pm 19.5 16.6 9.7 53 5.2 NE 15 24 8 13 1026.7 1026.7 0.0
21/12:00pm 19.6 16.9 10.3 55 5.0 NE 15 28 8 15 1026.9 1026.9 0.0
21/11:30am 17.8 14.0 8.9 56 4.6 NE 19 30 10 16 1027.2 1027.2 0.0
21/11:00am 18.0 15.2 9.9 59 4.3 NE 15 26 8 14 1027.6 1027.6 0.0
21/10:30am 17.0 14.0 9.4 61 4.0 NE 15 26 8 14 1027.9 1027.9 0.0
21/10:00am 16.6 14.2 10.0 65 3.4 NE 13 22 7 12 1028.0 1028.0 0.0
21/09:30am 15.4 12.8 9.3 67 3.1 NE 13 26 7 14 1028.0 1028.0 0.0
21/09:00am 14.2 11.8 8.6 69 2.8 NE 11 20 6 11 1028.1 1028.1 0.0
21/08:30am 13.5 11.5 8.6 72 2.5 NE 9 17 5 9 1028.0 1028.0 0.0
21/08:00am 12.7 10.6 8.4 75 2.1 NE 9 19 5 10 1027.8 1027.8 0.0
21/07:30am 12.1 10.5 8.6 79 1.7 NE 7 13 4 7 1027.5 1027.5 0.0
21/07:00am 10.8 9.0 7.9 82 1.4 ENE 7 13 4 7 1027.2 1027.2 0.0
21/06:30am 9.9 8.1 7.0 82 1.4 NE 6 9 3 5 1026.9 1026.9 0.0
21/06:00am 10.2 8.2 7.1 81 1.5 ENE 7 11 4 6 1026.7 1026.7 0.0
21/05:30am 10.4 8.4 7.1 80 1.6 ENE 7 11 4 6 1026.6 1026.6 0.0
21/05:00am 10.3 8.4 6.6 78 1.7 ENE 6 9 3 5 1026.7 1026.7 0.0
21/04:30am 11.1 9.3 7.2 77 1.9 E 6 11 3 6 1026.6 1026.6 0.0
21/04:00am 11.4 9.0 7.1 75 2.0 E 9 17 5 9 1026.6 1026.6 0.0
21/03:30am 11.5 9.1 7.0 74 2.1 E 9 20 5 11 1026.9 1026.9 0.0
21/03:00am 11.5 8.7 6.8 73 2.2 E 11 17 6 9 1027.1 1027.1 0.0
21/02:30am 11.8 9.0 6.9 72 2.3 E 11 20 6 11 1027.3 1027.3 0.0
21/02:00am 11.8 8.6 6.7 71 2.4 E 13 20 7 11 1027.6 1027.6 0.0
21/01:30am 11.9 8.7 7.0 72 2.3 E 13 24 7 13 1028.0 1028.0 0.0
21/01:00am 12.0 8.4 6.9 71 2.4 E 15 24 8 13 1028.6 1028.6 0.0
21/12:30am 12.2 8.7 7.1 71 2.5 E 15 28 8 15 1028.7 1028.7 0.0
21/12:00am 12.2 8.3 6.9 70 2.5 E 17 26 9 14 1028.9 1028.9 0.0
 
Date/Time
EDT
Tmp

°C
App
Tmp
°C
Dew
Point
°C
Rel
Hum
%
Delta-T

°C
Wind Press
QNH
hPa
Press
MSL
hPa
Rain
since
9 am
mm
Dir
 
Spd
km/h
Gust
km/h
Spd
kts
Gust
kts
20/11:30pm 12.1 8.5 6.8 70 2.5 E 15 22 8 12 1029.1 1029.1 0.0
20/11:00pm 12.1 8.5 6.6 69 2.6 E 15 26 8 14 1029.2 1029.2 0.0
20/10:30pm 12.3 8.3 6.6 68 2.7 ESE 17 26 9 14 1029.4 1029.4 0.0
20/10:00pm 12.5 9.3 6.8 68 2.7 ESE 13 26 7 14 1029.6 1029.6 0.0
20/09:30pm 12.7 9.2 7.0 68 2.7 E 15 26 8 14 1029.6 1029.6 0.0
20/09:00pm 13.0 10.0 7.7 70 2.6 ESE 13 20 7 11 1029.4 1029.4 0.0
20/08:30pm 13.4 9.7 7.8 69 2.8 ESE 17 28 9 15 1028.8 1028.8 0.0
20/08:00pm 13.8 9.1 7.6 66 3.0 ESE 22 41 12 22 1028.5 1028.5 0.0
20/07:30pm 14.3 9.6 7.8 65 3.2 SE 22 35 12 19 1028.3 1028.3 0.0
20/07:00pm 15.2 10.6 8.2 63 3.5 ESE 22 35 12 19 1028.0 1028.0 0.0
20/06:30pm 15.9 11.4 8.6 62 3.7 SE 22 37 12 20 1028.0 1028.0 0.0
20/06:00pm 16.3 11.4 8.5 60 3.9 SE 24 39 13 21 1027.9 1027.9 0.0
20/05:30pm 16.9 12.9 9.1 60 4.0 SE 20 39 11 21 1028.0 1028.0 0.0
20/05:00pm 17.0 12.7 9.2 60 4.0 SE 22 35 12 19 1028.1 1028.1 0.0
20/04:30pm 16.9 12.2 9.1 60 4.0 SE 24 39 13 21 1028.1 1028.1 0.0
20/04:00pm 17.1 13.0 8.8 58 4.2 SE 20 33 11 18 1028.1 1028.1 0.0
20/03:30pm 17.5 13.3 9.7 60 4.1 SE 22 41 12 22 1028.4 1028.4 0.0
20/03:00pm 17.6 13.5 7.9 53 4.9 SE 19 32 10 17 1028.6 1028.6 0.0
20/02:30pm 17.2 12.8 7.5 53 4.9 SE 20 33 11 18 1028.9 1028.9 0.0
20/02:00pm 17.3 13.0 7.1 51 5.1 SE 19 30 10 16 1029.3 1029.3 0.0
20/01:30pm 16.7 12.4 7.1 53 4.8 SE 19 30 10 16 1029.5 1029.5 0.0
20/01:00pm 16.7 12.8 7.1 53 4.7 SSE 17 24 9 13 1029.6 1029.6 0.0
20/12:30pm 15.4 10.7 5.0 50 4.9 ESE 19 32 10 17 1030.1 1030.1 0.0
20/12:00pm 15.2 10.5 5.1 51 4.7 ESE 19 28 10 15 1030.5 1030.5 0.0
20/11:30am 15.2 10.6 5.4 52 4.7 ESE 19 32 10 17 1030.9 1030.9 0.0
20/11:00am 14.7 9.9 4.7 51 4.6 ESE 19 37 10 20 1031.1 1031.1 0.0
20/10:30am 14.1 9.2 4.1 51 4.6 ESE 19 32 10 17 1031.2 1031.2 0.0
20/10:00am 13.4 8.3 4.0 53 4.2 ESE 20 37 11 20 1031.4 1031.4 0.0
20/09:30am 13.2 8.3 4.1 54 4.1 ESE 19 32 10 17 1031.3 1031.3 0.0
20/09:00am 12.6 7.7 4.1 56 3.8 ESE 19 32 10 17 1031.4 1031.4 0.0
20/08:30am 12.3 6.9 2.7 52 4.2 ESE 20 33 11 18 1031.0 1031.0 0.0
20/08:00am 12.1 7.5 3.6 56 3.7 ESE 17 30 9 16 1030.7 1030.7 0.0
20/07:30am 11.5 7.8 4.5 62 3.2 SE 13 24 7 13 1030.4 1030.4 0.0
20/07:00am 10.0 6.7 2.6 60 3.1 SE 9 17 5 9 1030.6 1030.6 0.0
20/06:30am 9.9 6.2 2.5 60 3.1 SSE 11 19 6 10 1030.6 1030.6 0.0
20/06:00am 9.8 6.6 2.9 62 2.9 SE 9 15 5 8 1030.0 1030.0 0.0
20/05:30am 10.3 6.3 2.9 60 3.2 SE 13 22 7 12 1030.0 1030.0 0.0
20/05:00am 10.8 7.4 4.0 63 3.0 SE 11 19 6 10 1029.6 1029.6 0.0
20/04:30am 10.0 6.8 3.1 62 3.0 SE 9 13 5 7 1029.5 1029.5 0.0
20/04:00am 10.7 7.4 4.4 65 2.8 SE 11 15 6 8 1029.6 1029.6 0.0
20/03:30am 10.7 7.6 5.5 70 2.4 SE 11 19 6 10 1029.4 1029.4 0.0
20/03:00am 11.1 8.5 6.3 72 2.2 SE 9 19 5 10 1029.6 1029.6 0.0
20/02:30am 11.7 8.4 6.4 70 2.5 SSE 13 24 7 13 1029.6 1029.6 0.0
20/02:00am 11.7 8.4 6.6 71 2.4 SSE 13 22 7 12 1029.5 1029.5 0.0
20/01:30am 11.9 8.9 7.8 76 2.0 SSE 13 22 7 12 1029.6 1029.6 0.0
20/01:00am 12.1 8.0 7.8 75 2.1 S 19 32 10 17 1029.6 1029.6 0.0
20/12:30am 12.4 8.5 8.5 77 1.9 S 19 32 10 17 1029.3 1029.3 0.0
20/12:00am 12.4 9.4 7.9 74 2.2 S 13 22 7 12 1029.1 1029.1 0.0
 
Date/Time
EDT
Tmp

°C
App
Tmp
°C
Dew
Point
°C
Rel
Hum
%
Delta-T

°C
Wind Press
QNH
hPa
Press
MSL
hPa
Rain
since
9 am
mm
Dir
 
Spd
km/h
Gust
km/h
Spd
kts
Gust
kts
19/11:30pm 12.4 8.8 8.3 76 2.0 S 17 26 9 14 1029.1 1029.1 0.0
19/11:00pm 12.4 8.4 8.1 75 2.1 S 19 28 10 15 1029.0 1029.0 0.0
19/10:30pm 12.4 8.6 8.9 79 1.8 S 19 30 10 16 1028.5 1028.5 0.0
19/10:00pm 12.5 9.2 9.5 82 1.5 S 17 24 9 13 1028.5 1028.5 0.0
19/09:30pm 12.5 9.2 9.7 83 1.4 S 17 28 9 15 1027.9 1027.9 0.0
19/09:00pm 12.9 8.5 10.4 85 1.3 S 24 37 13 20 1027.3 1027.3 0.0
19/08:30pm 14.0 11.5 11.0 82 1.6 SSW 15 22 8 12 1026.1 1026.1 0.0
19/08:00pm 13.9 11.4 11.1 83 1.5 SSW 15 24 8 13 1025.0 1025.0 0.0
19/07:30pm 14.0 10.7 11.0 82 1.6 SW 19 30 10 16 1024.4 1024.4 0.0
19/07:00pm 14.4 10.6 11.2 81 1.7 SSW 22 37 12 20 1023.8 1023.8 0.0
19/06:30pm 14.6 11.3 11.7 83 1.6 SW 20 33 11 18 1023.1 1023.1 0.0
19/06:00pm 14.8 11.6 11.8 82 1.6 SW 20 30 11 16 1022.4 1022.4 0.0
19/05:30pm 14.9 11.3 11.7 81 1.7 SW 22 32 12 17 1021.7 1021.7 0.0
19/05:00pm 14.8 11.1 11.6 81 1.7 SSW 22 35 12 19 1021.2 1021.2 0.0
19/04:30pm 15.3 11.3 11.7 79 1.9 SW 24 39 13 21 1020.8 1020.8 0.0
19/04:00pm 15.8 12.8 12.7 82 1.7 SSW 20 30 11 16 1020.0 1020.0 0.0
19/03:30pm 16.0 11.5 12.6 80 1.9 SW 28 41 15 22 1019.9 1019.9 0.0
19/03:00pm 15.6 10.2 12.2 80 1.9 SSW 32 52 17 28 1019.6 1019.6 0.0
19/02:54pm 15.7 10.6 11.9 78 2.1 SSW 30 52 16 28 1019.5 1019.5 0.0
19/02:42pm 19.2 14.8 9.1 52 5.3 WSW 22 33 12 18 1019.2 1019.2 0.0
19/02:30pm 25.4 20.3 7.5 32 9.5 NW 24 35 13 19 1018.5 1018.5 0.0
19/02:00pm 25.7 20.5 5.3 27 10.4 NNW 22 44 12 24 1018.1 1018.1 0.0
19/01:30pm 25.3 19.9 4.4 26 10.5 NNW 22 37 12 20 1018.3 1018.3 0.0
19/01:00pm 25.5 19.2 3.5 24 10.8 N 26 44 14 24 1018.4 1018.4 0.0
19/12:33pm 25.8 19.2 4.3 25 10.8 NNW 28 50 15 27 1018.5 1018.5 0.0
19/12:30pm 25.8 19.5 3.7 24 10.9 NNW 26 44 14 24 1018.5 1018.5 0.0
19/12:00pm 24.8 18.0 2.9 24 10.6 NNW 28 48 15 26 1018.6 1018.6 0.0
19/11:30am 24.7 18.0 3.4 25 10.4 NNW 28 56 15 30 1019.0 1019.0 0.0
19/11:01am 23.9 17.2 3.8 27 9.8 NNW 28 50 15 27 1019.1 1019.1 0.0
19/11:00am 23.9 17.1 3.2 26 10.0 NNW 28 41 15 22 1019.1 1019.1 0.0

Latest Capital City Observations: Canberra | Sydney | Melbourne | Brisbane | Adelaide | Perth | Hobart | Darwin

Other Formats:

Comma delimited format used in spreadsheet applications
http://www.bom.gov.au/fwo/IDV60901/IDV60901.94898.axf

JavaScript Object Notation format (JSON) in row-major order
http://www.bom.gov.au/fwo/IDV60901/IDV60901.94898.json